Time;durP1;ratioP1;P1;durP2;ratioP2;P2;SDS_P1;SDS_P2;PMS_P1;PMS_P2;Temp;Humidity;BMP_temperature;BMP_pressure;BME280_temperature;BME280_humidity;BME280_pressure;Samples;Min_cycle;Max_cycle;Signal;HPM_P1;HPM_P2
2021/09/03 00:01:57;;;;;;;6.03;2.73;;;;;;;11.51;68.39;101063.34;126327;1099;104280;-78
2021/09/03 00:04:25;;;;;;;9.63;3.23;;;;;;;11.50;68.71;101057.20;126274;1099;104201;-78
2021/09/03 00:06:54;;;;;;;8.77;3.10;;;;;;;11.51;67.85;101060.72;126343;1099;104245;-79
2021/09/03 00:09:21;;;;;;;10.73;3.63;;;;;;;11.50;68.10;101061.58;126360;1099;104283;-78
2021/09/03 00:11:50;;;;;;;9.23;3.53;;;;;;;11.49;68.62;101062.40;126375;1099;104226;-78
2021/09/03 00:14:18;;;;;;;9.90;3.23;;;;;;;11.48;68.50;101056.26;126283;1099;104153;-78
2021/09/03 00:16:46;;;;;;;7.77;3.10;;;;;;;11.46;68.37;101060.53;126316;1099;104258;-78
2021/09/03 00:19:14;;;;;;;10.85;3.25;;;;;;;11.47;68.66;101067.59;126339;1098;104137;-78
2021/09/03 00:21:43;;;;;;;9.10;3.33;;;;;;;11.48;68.85;101072.02;126360;1099;104169;-78
2021/09/03 00:24:11;;;;;;;10.73;3.43;;;;;;;11.48;68.51;101068.48;126325;1099;101786;-78
2021/09/03 00:26:39;;;;;;;8.37;3.57;;;;;;;11.45;68.77;101074.53;126349;1098;104141;-79
2021/09/03 00:29:07;;;;;;;10.47;3.70;;;;;;;11.42;69.11;101074.40;126311;1099;104143;-79
2021/09/03 00:31:36;;;;;;;8.60;3.17;;;;;;;11.43;69.13;101077.91;126349;1099;104268;-78
2021/09/03 00:34:04;;;;;;;6.50;3.05;;;;;;;11.43;69.46;101081.42;126226;1099;104214;-79
2021/09/03 00:36:33;;;;;;;13.40;3.57;;;;;;;11.45;69.07;101070.98;126364;1099;104147;-79
2021/09/03 00:39:01;;;;;;;9.17;3.17;;;;;;;11.44;69.16;101070.09;126313;1099;104195;-79
2021/09/03 00:41:29;;;;;;;12.40;3.43;;;;;;;11.44;68.97;101070.09;126301;1099;104306;-79
2021/09/03 00:43:57;;;;;;;8.97;3.30;;;;;;;11.44;69.08;101069.20;126347;1099;104160;-78
2021/09/03 00:46:26;;;;;;;8.97;3.63;;;;;;;11.42;69.02;101065.59;126307;1099;104143;-78
2021/09/03 00:48:54;;;;;;;6.70;2.90;;;;;;;11.41;69.46;101059.45;126335;1099;104139;-78
2021/09/03 00:51:22;;;;;;;8.63;3.30;;;;;;;11.37;69.42;101057.52;126341;1099;104197;-78
2021/09/03 00:53:51;;;;;;;7.67;3.20;;;;;;;11.35;69.15;101053.95;126282;1098;104392;-79
2021/09/03 00:56:19;;;;;;;6.13;3.13;;;;;;;11.34;69.27;101065.28;126296;1099;104136;-78
2021/09/03 00:58:48;;;;;;;7.77;3.40;;;;;;;11.30;69.81;101060.75;126315;1099;104274;-79
2021/09/03 01:01:17;;;;;;;10.50;3.80;;;;;;;11.24;69.60;101061.38;126333;1099;104134;-79
2021/09/03 01:03:45;;;;;;;12.13;4.17;;;;;;;11.19;69.35;101056.75;126304;1099;104146;-79
2021/09/03 01:06:15;;;;;;;8.17;3.30;;;;;;;11.12;69.41;101050.36;126329;1099;104380;-78
2021/09/03 01:08:44;;;;;;;8.67;3.17;;;;;;;11.10;69.68;101050.29;126349;1099;104152;-78
2021/09/03 01:11:13;;;;;;;8.27;3.27;;;;;;;11.08;69.54;101046.71;126340;1099;104281;-78
2021/09/03 01:13:41;;;;;;;8.87;3.40;;;;;;;11.09;69.46;101045.86;126302;1099;104137;-78
2021/09/03 01:16:08;;;;;;;7.00;3.53;;;;;;;11.11;69.90;101045.92;126299;1099;117905;-78
2021/09/03 01:18:37;;;;;;;12.00;3.70;;;;;;;11.10;70.08;101046.78;126331;1099;104194;-78
2021/09/03 01:21:05;;;;;;;9.57;3.70;;;;;;;11.13;69.60;101053.05;126335;1099;104136;-79
2021/09/03 01:23:33;;;;;;;11.50;3.80;;;;;;;11.18;70.17;101061.13;126328;1099;104152;-78
2021/09/03 01:26:03;;;;;;;9.87;3.40;;;;;;;11.23;69.97;101058.69;126324;1099;104171;-79
2021/09/03 01:28:32;;;;;;;8.73;3.00;;;;;;;11.25;70.03;101057.02;126347;1099;104153;-79
2021/09/03 01:31:00;;;;;;;6.93;3.10;;;;;;;11.29;69.65;101058.95;126327;1099;104140;-78
2021/09/03 01:33:28;;;;;;;6.43;3.13;;;;;;;11.35;70.27;101053.95;126342;1098;104198;-79
2021/09/03 01:35:56;;;;;;;10.63;3.43;;;;;;;11.40;69.98;101054.14;126322;1099;104165;-79
2021/09/03 01:38:26;;;;;;;7.10;3.03;;;;;;;11.34;70.37;101046.88;126315;1099;104147;-78
2021/09/03 01:40:54;;;;;;;9.10;3.40;;;;;;;11.30;70.44;101060.75;126327;1099;104149;-79
2021/09/03 01:43:23;;;;;;;11.27;3.87;;;;;;;11.24;70.26;101058.75;126315;1099;104300;-79
2021/09/03 01:45:52;;;;;;;9.33;3.50;;;;;;;11.18;70.29;101061.13;126329;1099;104188;-78
2021/09/03 01:48:20;;;;;;;13.40;3.27;;;;;;;11.13;70.64;101057.41;126323;1099;104217;-80
2021/09/03 01:50:48;;;;;;;8.30;3.20;;;;;;;11.10;70.43;101058.17;126347;1098;104142;-79
2021/09/03 01:53:16;;;;;;;8.47;3.30;;;;;;;11.08;70.91;101057.22;126340;1099;104146;-79
2021/09/03 01:55:45;;;;;;;8.27;3.27;;;;;;;11.05;70.73;101054.46;126269;1098;104137;-79
2021/09/03 01:58:13;;;;;;;8.50;3.33;;;;;;;11.06;70.73;101057.97;126350;1099;104194;-79
2021/09/03 02:00:42;;;;;;;10.90;3.60;;;;;;;11.06;70.85;101056.23;126292;1098;104150;-78
2021/09/03 02:03:13;;;;;;;9.03;3.57;;;;;;;11.04;70.81;101050.03;126333;1098;104163;-78
2021/09/03 02:05:41;;;;;;;14.47;3.40;;;;;;;11.05;70.63;101051.84;126221;1099;104905;-78
2021/09/03 02:08:10;;;;;;;9.73;3.80;;;;;;;11.05;70.82;101054.46;126308;1099;104309;-78
2021/09/03 02:10:37;;;;;;;7.37;3.10;;;;;;;11.05;70.79;101054.46;126343;1099;104287;-78
2021/09/03 02:13:05;;;;;;;8.50;3.07;;;;;;;11.08;70.79;101053.67;126357;1099;104143;-78
2021/09/03 02:15:34;;;;;;;10.13;3.50;;;;;;;11.10;70.85;101057.28;126288;1099;104146;-78
2021/09/03 02:18:02;;;;;;;10.93;3.27;;;;;;;11.07;70.52;101059.78;126336;1099;104168;-78
2021/09/03 02:20:30;;;;;;;12.83;3.40;;;;;;;11.03;70.57;101061.39;126351;1099;104312;-78
2021/09/03 02:22:58;;;;;;;10.63;3.53;;;;;;;10.97;70.88;101061.13;126320;1099;104204;-78
2021/09/03 02:25:27;;;;;;;7.57;3.40;;;;;;;10.94;71.13;101053.11;126270;1099;104143;-79
2021/09/03 02:28:04;;;;;;;6.93;3.10;;;;;;;10.92;71.42;101054.75;126317;1098;104238;-78
2021/09/03 02:30:33;;;;;;;11.07;3.30;;;;;;;10.90;71.07;101059.05;126360;1098;104342;-79
2021/09/03 02:33:02;;;;;;;9.73;3.17;;;;;;;10.91;70.93;101051.23;126259;1099;104213;-78
2021/09/03 02:35:30;;;;;;;9.10;3.00;;;;;;;10.93;71.21;101049.56;126296;1099;104204;-80
2021/09/03 02:37:59;;;;;;;8.27;3.33;;;;;;;10.95;71.37;101049.63;126318;1099;104153;-79
2021/09/03 02:40:28;;;;;;;7.23;3.30;;;;;;;10.96;71.10;101043.56;126356;1099;104197;-78
2021/09/03 02:42:56;;;;;;;9.53;3.80;;;;;;;10.95;71.11;101041.76;126324;1099;104350;-78
2021/09/03 02:45:26;;;;;;;7.40;3.83;;;;;;;10.92;71.02;101046.87;126272;1099;104156;-79
2021/09/03 02:47:55;;;;;;;7.63;3.40;;;;;;;10.87;71.73;101041.42;126314;1097;104188;-78
2021/09/03 02:50:25;;;;;;;10.40;3.67;;;;;;;10.84;71.53;101048.28;126343;1099;104258;-78
2021/09/03 02:52:55;;;;;;;8.30;3.20;;;;;;;10.81;71.16;101043.78;126335;1099;104210;-78
2021/09/03 02:55:26;;;;;;;8.47;3.27;;;;;;;10.79;71.82;101041.09;126353;1099;104153;-78
2021/09/03 02:57:55;;;;;;;8.27;3.27;;;;;;;10.79;72.31;101042.83;126239;1097;104379;-78
2021/09/03 03:00:27;;;;;;;8.63;3.67;;;;;;;10.78;72.10;101046.28;126327;1098;104146;-79
2021/09/03 03:02:56;;;;;;;9.93;3.70;;;;;;;10.74;72.52;101037.38;126211;1099;104178;-78
2021/09/03 03:05:24;;;;;;;9.23;3.57;;;;;;;10.70;71.95;101045.94;126322;1099;104198;-80
2021/09/03 03:07:52;;;;;;;9.20;3.50;;;;;;;10.69;71.83;101048.50;126215;1099;104259;-77
2021/09/03 03:10:21;;;;;;;10.33;3.63;;;;;;;10.66;72.65;101038.78;126216;1099;104144;-77
2021/09/03 03:12:53;;;;;;;8.90;3.40;;;;;;;10.65;72.14;101039.60;126311;1099;104280;-77
2021/09/03 03:15:22;;;;;;;8.80;3.17;;;;;;;10.66;72.21;101036.16;126351;1099;104146;-76
2021/09/03 03:17:51;;;;;;;9.07;3.27;;;;;;;10.65;71.94;101038.72;126308;1099;104213;-77
2021/09/03 03:20:22;;;;;;;10.20;3.57;;;;;;;10.63;72.69;101036.02;126248;1099;104273;-77
2021/09/03 03:22:50;;;;;;;9.40;3.63;;;;;;;10.63;72.41;101032.48;126339;1099;104136;-77
2021/09/03 03:25:19;;;;;;;9.03;3.83;;;;;;;10.56;72.77;101029.58;126376;1099;104272;-77
2021/09/03 03:27:47;;;;;;;6.97;3.47;;;;;;;10.54;72.43;101027.74;126288;1098;104251;-78
2021/09/03 03:30:17;;;;;;;8.53;3.60;;;;;;;10.54;72.30;101031.25;126348;1099;104172;-76
2021/09/03 03:32:46;;;;;;;11.30;3.50;;;;;;;10.55;72.83;101034.77;126296;1099;104277;-77
2021/09/03 03:35:14;;;;;;;8.27;3.43;;;;;;;10.56;73.06;101036.56;126297;1099;104146;-77
2021/09/03 03:37:42;;;;;;;8.93;3.20;;;;;;;10.58;73.25;101035.81;126269;1099;104202;-77
2021/09/03 03:40:12;;;;;;;11.23;3.77;;;;;;;10.62;73.05;101034.22;126330;1099;104152;-77
2021/09/03 03:42:42;;;;;;;10.27;4.00;;;;;;;10.63;72.78;101045.60;126392;1099;105218;-77
2021/09/03 03:45:12;;;;;;;9.33;4.23;;;;;;;10.63;73.27;101050.85;126355;1099;104256;-77
2021/09/03 03:47:41;;;;;;;10.87;3.83;;;;;;;10.60;73.12;101052.52;126199;1099;105282;-77
2021/09/03 03:50:12;;;;;;;13.17;4.27;;;;;;;10.58;73.07;101059.44;126252;1099;104210;-76
2021/09/03 03:52:41;;;;;;;11.73;4.37;;;;;;;10.59;73.10;101058.59;126329;1099;104144;-77
2021/09/03 03:55:12;;;;;;;9.20;3.80;;;;;;;10.58;73.01;101069.94;126381;1099;104158;-76
2021/09/03 03:57:40;;;;;;;11.67;3.70;;;;;;;10.60;73.36;101067.37;126298;1099;104355;-77
2021/09/03 04:00:10;;;;;;;11.60;3.57;;;;;;;10.65;73.33;101057.97;126348;1099;104825;-77
2021/09/03 04:02:38;;;;;;;11.37;4.13;;;;;;;10.66;73.13;101065.03;126354;1099;104137;-77
2021/09/03 04:05:08;;;;;;;12.25;4.30;;;;;;;10.67;73.64;101063.29;126318;1099;104137;-77
2021/09/03 04:07:37;;;;;;;10.87;4.20;;;;;;;10.66;73.31;101054.53;126330;1099;104140;-76
2021/09/03 04:10:06;;;;;;;12.27;4.33;;;;;;;10.69;73.45;101059.91;126367;1099;104566;-77
2021/09/03 04:12:36;;;;;;;13.07;4.03;;;;;;;10.70;73.29;101064.31;126297;1099;104258;-77
2021/09/03 04:15:05;;;;;;;11.23;3.83;;;;;;;10.72;73.93;101065.30;126374;1099;104156;-78
2021/09/03 04:17:33;;;;;;;8.67;3.80;;;;;;;10.72;73.53;101065.30;126274;1099;104144;-77
2021/09/03 04:20:04;;;;;;;10.67;3.83;;;;;;;10.76;73.92;101069.83;126355;1099;104274;-77
2021/09/03 04:22:32;;;;;;;10.57;3.70;;;;;;;10.81;74.00;101067.41;126357;1098;104485;-77
2021/09/03 04:25:01;;;;;;;11.25;4.20;;;;;;;10.84;73.62;101070.17;126294;1099;104320;-75
2021/09/03 04:27:29;;;;;;;9.93;4.20;;;;;;;10.87;73.78;101069.42;126297;1099;104214;-76
2021/09/03 04:29:56;;;;;;;10.27;4.33;;;;;;;10.90;73.62;101064.30;126341;1099;104322;-78
2021/09/03 04:32:25;;;;;;;10.70;4.20;;;;;;;10.90;73.39;101065.19;126359;1099;104139;-78
2021/09/03 04:34:53;;;;;;;11.50;4.07;;;;;;;10.92;73.87;101055.67;126288;1099;104271;-80
2021/09/03 04:37:22;;;;;;;12.97;4.30;;;;;;;10.95;73.79;101060.14;126327;1097;104271;-80
2021/09/03 04:39:50;;;;;;;10.13;4.00;;;;;;;11.01;74.09;101068.28;126312;1098;104163;-80
2021/09/03 04:42:18;;;;;;;11.17;3.70;;;;;;;11.07;73.97;101073.80;126275;1099;104213;-79
2021/09/03 04:44:46;;;;;;;9.60;3.63;;;;;;;11.10;74.34;101068.67;126368;1099;104175;-80
2021/09/03 04:47:14;;;;;;;10.70;4.63;;;;;;;11.14;73.77;101072.31;126346;1099;104267;-81
2021/09/03 04:49:42;;;;;;;12.77;4.30;;;;;;;11.19;74.10;101069.89;126255;1099;104152;-79
2021/09/03 04:52:12;;;;;;;13.43;4.20;;;;;;;11.24;74.36;101073.63;126223;1099;104133;-80
2021/09/03 04:54:41;;;;;;;11.50;4.20;;;;;;;11.30;73.92;101066.00;126246;1099;104269;-80
2021/09/03 04:57:09;;;;;;;12.17;4.70;;;;;;;11.36;73.88;101061.01;126191;1099;104277;-79
2021/09/03 04:59:37;;;;;;;12.03;4.30;;;;;;;11.44;73.78;101064.84;126229;1099;105200;-78
2021/09/03 05:02:05;;;;;;;11.93;4.70;;;;;;;11.51;73.89;101061.64;126244;1099;104437;-80
2021/09/03 05:04:33;;;;;;;12.77;4.20;;;;;;;11.57;73.88;101071.48;126236;1099;104149;-80
2021/09/03 05:07:01;;;;;;;12.70;4.53;;;;;;;11.60;73.74;101074.23;126304;1099;104156;-79
2021/09/03 05:09:30;;;;;;;10.33;4.30;;;;;;;11.66;73.79;101081.48;126227;1098;104278;-80
2021/09/03 05:11:58;;;;;;;10.53;4.23;;;;;;;11.73;73.57;101078.25;126252;1097;104369;-80
2021/09/03 05:14:27;;;;;;;12.23;4.30;;;;;;;11.79;73.46;101077.61;126277;1098;104290;-78
2021/09/03 05:16:55;;;;;;;10.60;4.40;;;;;;;11.85;73.58;101077.86;126266;1099;104405;-78
2021/09/03 05:19:23;;;;;;;11.40;4.70;;;;;;;11.90;73.57;101086.81;126169;1098;104143;-77
2021/09/03 05:21:51;;;;;;;13.43;4.33;;;;;;;11.92;73.41;101085.20;126192;1099;104181;-79
2021/09/03 05:24:21;;;;;;;12.00;4.50;;;;;;;11.97;73.39;101088.02;126300;1098;104245;-80
2021/09/03 05:26:49;;;;;;;15.30;4.70;;;;;;;12.02;73.48;101084.70;126314;1099;104144;-79
2021/09/03 05:29:23;;;;;;;11.03;4.17;;;;;;;12.08;73.53;101080.55;126228;1099;104358;-78
2021/09/03 05:31:55;;;;;;;12.30;4.20;;;;;;;12.12;73.49;101082.43;126083;1099;104194;-78
2021/09/03 05:34:27;;;;;;;12.60;4.63;;;;;;;12.15;73.45;101077.29;125950;1099;104300;-79
2021/09/03 05:36:56;;;;;;;13.17;4.10;;;;;;;12.18;73.17;101078.30;126052;1099;104229;-79
2021/09/03 05:39:25;;;;;;;11.20;4.20;;;;;;;12.25;73.22;101079.45;126022;1099;105311;-79
2021/09/03 05:41:57;;;;;;;10.37;4.10;;;;;;;12.30;73.10;101077.87;125954;1099;104842;-78
2021/09/03 05:44:30;;;;;;;12.70;4.40;;;;;;;12.36;72.91;101082.48;126086;1099;104175;-78
2021/09/03 05:47:02;;;;;;;16.00;4.70;;;;;;;12.40;72.87;101077.40;126074;1099;104766;-77
2021/09/03 05:49:31;;;;;;;12.37;4.23;;;;;;;12.46;72.98;101079.34;126117;1099;104257;-76
2021/09/03 05:52:03;;;;;;;15.90;5.07;;;;;;;12.47;72.86;101073.25;126077;1099;104204;-75
2021/09/03 05:54:35;;;;;;;12.37;4.30;;;;;;;12.54;72.89;101082.26;126168;1099;104197;-75
2021/09/03 05:57:06;;;;;;;;;;;;;;;12.56;72.19;101084.13;126045;1099;104848;-77
2021/09/03 05:59:37;;;;;;;12.77;4.00;;;;;;;12.59;72.54;101081.60;126170;1098;104236;-76
2021/09/03 06:02:08;;;;;;;16.67;4.07;;;;;;;12.65;72.33;101085.29;126252;1099;104220;-76
2021/09/03 06:04:39;;;;;;;12.13;4.40;;;;;;;12.70;72.26;101086.34;126068;1099;104329;-78
2021/09/03 06:07:11;;;;;;;11.40;4.47;;;;;;;12.73;72.51;101086.45;126010;1099;104207;-77
2021/09/03 06:09:40;;;;;;;15.60;4.60;;;;;;;12.75;72.04;101082.16;126018;1099;104303;-78
2021/09/03 06:12:11;;;;;;;11.07;3.50;;;;;;;12.81;71.92;101085.02;126027;1097;104191;-80
2021/09/03 06:14:41;;;;;;;11.77;4.13;;;;;;;12.88;72.22;101088.75;125909;1099;104618;-77
2021/09/03 06:17:13;;;;;;;14.33;4.47;;;;;;;12.91;71.66;101079.22;126067;1099;104223;-78
2021/09/03 06:19:43;;;;;;;14.90;3.77;;;;;;;12.97;71.76;101080.30;126205;1099;104156;-77
2021/09/03 06:22:11;;;;;;;15.30;4.07;;;;;;;13.01;71.55;101080.45;125940;1099;110991;-76
2021/09/03 06:24:41;;;;;;;12.37;3.90;;;;;;;13.07;71.01;101079.75;126163;1099;104153;-77
2021/09/03 06:27:11;;;;;;;14.23;4.43;;;;;;;13.13;71.35;101078.25;126230;1099;104144;-76
2021/09/03 06:29:41;;;;;;;12.83;4.00;;;;;;;13.21;71.36;101077.59;126125;1099;104328;-77
2021/09/03 06:32:15;;;;;;;13.20;4.25;;;;;;;13.26;71.16;101071.66;126269;1099;104146;-76
2021/09/03 06:34:47;;;;;;;9.93;4.40;;;;;;;13.32;71.21;101073.58;126114;1099;104163;-77
2021/09/03 06:37:20;;;;;;;14.20;4.13;;;;;;;13.41;70.68;101078.31;126043;1099;104168;-77
2021/09/03 06:39:50;;;;;;;10.13;3.80;;;;;;;13.50;70.98;101081.25;125863;1099;104270;-74
2021/09/03 06:42:23;;;;;;;10.07;4.00;;;;;;;13.63;70.97;101074.63;126003;1099;104181;-75
2021/09/03 06:44:55;;;;;;;14.17;4.37;;;;;;;13.74;70.43;101081.14;126055;1099;104156;-75
2021/09/03 06:47:25;;;;;;;12.37;4.00;;;;;;;13.85;70.65;101086.75;126136;1099;104172;-75
2021/09/03 06:49:58;;;;;;;12.95;4.20;;;;;;;13.95;70.70;101080.94;125988;1099;104275;-77
2021/09/03 06:52:31;;;;;;;13.57;4.03;;;;;;;14.06;70.80;101083.02;126020;1099;104229;-74
2021/09/03 06:55:03;;;;;;;16.87;3.80;;;;;;;14.18;69.66;101088.67;126073;1099;104140;-76
2021/09/03 06:57:31;;;;;;;12.50;3.80;;;;;;;14.32;69.82;101081.14;126076;1099;104181;-77
2021/09/03 07:00:01;;;;;;;17.33;4.00;;;;;;;14.50;70.02;101080.80;126142;1099;104319;-76
2021/09/03 07:02:30;;;;;;;11.10;3.80;;;;;;;14.65;68.64;101085.67;126188;1099;104160;-76
2021/09/03 07:04:58;;;;;;;8.53;3.53;;;;;;;14.82;68.20;101086.11;126146;1099;104372;-73
2021/09/03 07:07:27;;;;;;;10.33;3.70;;;;;;;14.96;68.79;101076.84;126062;1099;104220;-74
2021/09/03 07:09:56;;;;;;;8.40;3.50;;;;;;;15.11;68.83;101076.34;126110;1099;104166;-75
2021/09/03 07:12:27;;;;;;;11.80;3.50;;;;;;;15.25;69.01;101063.48;125951;1099;104200;-75
2021/09/03 07:14:59;;;;;;;9.17;3.30;;;;;;;15.43;67.13;101069.23;126173;1099;104291;-75
2021/09/03 07:17:28;;;;;;;13.83;4.67;;;;;;;15.59;67.06;101073.14;126206;1099;104241;-76
2021/09/03 07:20:00;;;;;;;10.03;3.23;;;;;;;15.76;66.88;101072.67;126249;1099;104297;-75
2021/09/03 07:22:30;;;;;;;9.30;3.13;;;;;;;15.89;66.68;101072.11;126245;1099;104271;-76
2021/09/03 07:25:01;;;;;;;5.73;3.03;;;;;;;16.03;64.53;101080.37;126221;1099;104158;-76
2021/09/03 07:27:30;;;;;;;6.40;2.80;;;;;;;16.14;64.87;101076.23;126242;1099;104152;-76
2021/09/03 07:29:59;;;;;;;7.90;3.10;;;;;;;16.25;65.37;101075.55;126090;1098;104236;-76
2021/09/03 07:32:29;;;;;;;10.47;3.00;;;;;;;16.40;65.16;101077.65;126127;1099;104166;-77
2021/09/03 07:34:59;;;;;;;7.77;2.50;;;;;;;16.53;64.75;101083.23;126145;1099;104233;-76
2021/09/03 07:37:29;;;;;;;6.97;2.80;;;;;;;16.66;63.24;101080.84;126175;1099;104204;-77
2021/09/03 07:40:01;;;;;;;11.30;2.93;;;;;;;16.82;63.64;101068.77;126120;1099;104181;-77
2021/09/03 07:42:33;;;;;;;;;;;;;;;16.97;59.48;101068.19;126207;1098;104277;-75
2021/09/03 07:45:03;;;;;;;8.97;2.67;;;;;;;17.06;61.48;101071.00;125846;1099;104328;-77
2021/09/03 07:47:50;;;;;;;6.30;2.73;;;;;;;17.12;60.77;101071.12;126137;1099;104171;-75
2021/09/03 07:50:20;;;;;;;7.73;3.00;;;;;;;17.24;59.94;101062.50;126190;1099;104181;-76
2021/09/03 07:52:51;;;;;;;11.37;3.10;;;;;;;17.39;60.80;101068.06;126131;1099;104185;-76
2021/09/03 07:55:22;;;;;;;7.50;2.97;;;;;;;17.46;60.36;101066.41;125996;1099;104271;-79
2021/09/03 07:57:56;;;;;;;10.10;2.90;;;;;;;17.53;60.78;101072.69;125961;1099;104262;-78
2021/09/03 08:00:29;;;;;;;5.83;3.00;;;;;;;17.69;60.33;101073.85;126155;1099;104158;-77
2021/09/03 08:03:01;;;;;;;6.80;2.33;;;;;;;17.75;58.69;101081.91;126158;1098;104184;-77
2021/09/03 08:05:32;;;;;;;5.53;2.90;;;;;;;17.81;57.95;101079.35;126127;1099;103424;-78
2021/09/03 08:08:04;;;;;;;8.80;3.23;;;;;;;17.84;56.95;101078.48;125932;1099;104159;-76
2021/09/03 08:10:35;;;;;;;10.47;2.57;;;;;;;17.91;57.39;101073.33;126140;1099;104271;-77
2021/09/03 08:13:09;;;;;;;7.27;2.07;;;;;;;17.88;55.41;101078.59;126016;1099;104246;-76
2021/09/03 08:15:42;;;;;;;7.03;2.70;;;;;;;17.98;55.59;101078.73;126093;1099;104198;-76
2021/09/03 08:18:12;;;;;;;9.30;2.50;;;;;;;18.07;55.31;101070.89;126216;1099;104268;-77
2021/09/03 08:20:45;;;;;;;7.77;2.73;;;;;;;18.13;54.61;101066.55;126224;1099;104315;-75
2021/09/03 08:23:13;;;;;;;7.30;2.63;;;;;;;18.30;54.84;101064.12;126232;1099;104146;-75
2021/09/03 08:25:44;;;;;;;6.23;1.80;;;;;;;18.29;52.79;101067.67;126164;1098;104211;-74
2021/09/03 08:28:12;;;;;;;4.53;2.27;;;;;;;18.32;52.84;101061.48;126047;1099;104150;-74
2021/09/03 08:30:47;;;;;;;3.30;1.90;;;;;;;18.40;51.81;101058.92;126208;1099;104191;-76
2021/09/03 08:33:27;;;;;;;10.43;2.50;;;;;;;18.46;53.20;101059.00;126108;1099;104255;-77
2021/09/03 08:35:55;;;;;;;6.33;2.33;;;;;;;18.51;52.93;101057.28;126058;1099;104274;-76
2021/09/03 08:38:24;;;;;;;5.50;2.20;;;;;;;18.54;52.38;101051.13;126251;1099;104201;-76
2021/09/03 08:40:56;;;;;;;6.63;2.30;;;;;;;18.57;52.68;101046.73;126215;1097;104328;-75
2021/09/03 08:43:27;;;;;;;5.03;2.77;;;;;;;18.63;51.85;101052.11;126214;1099;104715;-75
2021/09/03 08:45:56;;;;;;;11.10;2.30;;;;;;;18.68;51.50;101046.84;126096;1099;104246;-76
2021/09/03 08:48:25;;;;;;;6.57;2.33;;;;;;;18.70;51.08;101045.12;126227;1099;104354;-75
2021/09/03 08:50:56;;;;;;;4.20;2.30;;;;;;;18.75;52.27;101034.54;126244;1099;104150;-75
2021/09/03 08:53:25;;;;;;;6.43;2.30;;;;;;;18.82;51.42;101039.94;126162;1099;104140;-76
2021/09/03 08:55:55;;;;;;;6.33;2.10;;;;;;;18.88;49.34;101038.24;126083;1099;104697;-76
2021/09/03 08:58:30;;;;;;;4.30;2.20;;;;;;;18.86;49.24;101038.23;126202;1099;104143;-76
2021/09/03 09:01:07;;;;;;;5.43;2.23;;;;;;;18.89;49.46;101032.06;126075;1099;104299;-77
2021/09/03 09:03:52;;;;;;;5.00;2.00;;;;;;;18.95;49.33;101026.80;126046;1099;104220;-76
2021/09/03 09:06:27;;;;;;;3.80;2.30;;;;;;;19.03;49.11;101025.98;126231;1099;104269;-77
2021/09/03 09:09:03;;;;;;;3.37;1.93;;;;;;;19.11;49.02;101036.69;126207;1099;104271;-76
2021/09/03 09:11:33;;;;;;;3.67;2.00;;;;;;;19.15;49.50;101021.64;125955;1099;104163;-76
2021/09/03 09:14:08;;;;;;;5.70;2.50;;;;;;;19.16;48.59;101023.44;126083;1099;104230;-77
2021/09/03 09:16:39;;;;;;;5.07;1.90;;;;;;;19.19;47.54;101026.12;126180;1099;104188;-76
2021/09/03 09:19:11;;;;;;;3.60;2.20;;;;;;;19.19;48.41;101024.34;126166;1099;104175;-77
2021/09/03 09:21:43;;;;;;;4.57;2.07;;;;;;;19.26;48.28;101027.05;126052;1099;104162;-76
2021/09/03 09:24:14;;;;;;;5.13;2.00;;;;;;;19.27;47.20;101028.84;126049;1099;104140;-75
2021/09/03 09:26:46;;;;;;;4.90;2.17;;;;;;;19.23;45.17;101019.95;126223;1099;104306;-75
2021/09/03 09:29:20;;;;;;;5.90;1.70;;;;;;;19.19;45.81;101026.12;126149;1099;104363;-76
2021/09/03 09:31:51;;;;;;;6.13;1.90;;;;;;;19.15;44.54;101014.57;126181;1099;104175;-76
2021/09/03 09:34:22;;;;;;;;;;;;;;;19.14;43.94;101015.44;126092;1099;104192;-74
2021/09/03 09:36:53;;;;;;;4.80;2.13;;;;;;;19.13;46.35;101003.00;126163;1099;104136;-76
2021/09/03 09:39:24;;;;;;;8.23;2.67;;;;;;;19.18;46.32;101003.95;126128;1099;104175;-76
2021/09/03 09:42:04;;;;;;;6.43;2.23;;;;;;;19.21;45.31;101008.39;126118;1099;101935;-74
2021/09/03 09:44:35;;;;;;;5.50;2.07;;;;;;;19.22;45.10;101000.42;126126;1097;104159;-76
2021/09/03 09:47:08;;;;;;;3.60;2.17;;;;;;;19.20;44.55;101001.31;126235;1099;104200;-76
2021/09/03 09:49:38;;;;;;;5.57;2.17;;;;;;;19.24;45.67;100992.45;126135;1099;104143;-75
2021/09/03 09:52:07;;;;;;;6.80;2.23;;;;;;;19.25;45.40;100982.73;126108;1099;104377;-75
2021/09/03 09:54:36;;;;;;;3.35;2.10;;;;;;;19.37;46.06;100983.70;126164;1099;104268;-75
2021/09/03 09:57:08;;;;;;;5.00;2.30;;;;;;;19.49;45.07;100979.33;126168;1099;104204;-75
2021/09/03 09:59:37;;;;;;;3.47;2.30;;;;;;;19.54;44.36;100974.92;126040;1099;104170;-77
2021/09/03 10:02:06;;;;;;;5.63;2.10;;;;;;;19.59;45.27;100978.53;126016;1099;104163;-79
2021/09/03 10:04:34;;;;;;;5.50;2.10;;;;;;;19.60;43.97;100988.27;126062;1099;104325;-78
2021/09/03 10:07:04;;;;;;;5.00;2.33;;;;;;;19.68;44.76;100977.67;126048;1099;104169;-79
2021/09/03 10:09:33;;;;;;;8.40;2.70;;;;;;;19.70;44.97;100976.81;125878;1099;104899;-78
2021/09/03 10:12:04;;;;;;;4.20;2.50;;;;;;;19.76;43.83;100970.64;125905;1099;104217;-77
2021/09/03 10:14:36;;;;;;;6.27;2.63;;;;;;;19.72;43.56;100961.72;126032;1099;102996;-76
2021/09/03 10:17:07;;;;;;;6.57;2.53;;;;;;;19.78;45.11;100952.05;125884;1099;104325;-78
2021/09/03 10:19:38;;;;;;;4.63;2.30;;;;;;;19.81;42.89;100968.03;126069;1099;104191;-77
2021/09/03 10:22:10;;;;;;;5.00;2.40;;;;;;;19.73;42.90;100965.30;126063;1099;104222;-76
2021/09/03 10:24:42;;;;;;;3.53;2.27;;;;;;;19.57;41.78;100961.63;126148;1098;104192;-77
2021/09/03 10:27:12;;;;;;;10.45;3.00;;;;;;;19.44;42.75;100973.09;126152;1099;104150;-77
2021/09/03 10:29:43;;;;;;;7.80;2.70;;;;;;;19.29;42.49;100969.45;126208;1099;104316;-76
2021/09/03 10:32:17;;;;;;;4.77;2.30;;;;;;;19.12;42.59;100963.09;126176;1099;104201;-78
2021/09/03 10:34:50;;;;;;;;;;;;;;;19.15;43.78;100960.45;126030;1099;104153;-77
2021/09/03 10:37:26;;;;;;;7.07;2.20;;;;;;;19.34;43.26;100962.39;126050;1097;104320;-77
2021/09/03 10:39:57;;;;;;;7.90;2.70;;;;;;;19.58;43.20;100952.78;126130;1099;104185;-77
2021/09/03 10:42:45;;;;;;;5.70;2.60;;;;;;;19.50;42.50;100951.84;126157;1099;104194;-77
2021/09/03 10:45:16;;;;;;;5.37;2.60;;;;;;;19.45;42.54;100961.59;126158;1098;104156;-77
2021/09/03 10:47:49;;;;;;;5.72;2.60;;;;;;;19.62;42.75;100951.92;126216;1099;104163;-75
2021/09/03 10:50:21;;;;;;;4.87;2.60;;;;;;;19.78;42.01;100947.59;126215;1099;104182;-77
2021/09/03 10:53:16;;;;;;;5.53;2.80;;;;;;;19.82;42.36;100953.81;126297;1099;104666;-77
2021/09/03 10:56:01;;;;;;;6.60;2.97;;;;;;;19.87;41.96;100946.77;126126;1098;105500;-75
2021/09/03 10:58:39;;;;;;;4.37;2.63;;;;;;;19.69;41.42;100953.72;126313;1099;104155;-75
2021/09/03 11:01:31;;;;;;;8.83;3.17;;;;;;;19.66;42.66;100951.04;126268;1099;104146;-77
2021/09/03 11:04:04;;;;;;;9.07;2.93;;;;;;;19.55;42.54;100936.79;126247;1099;104275;-75
2021/09/03 11:06:36;;;;;;;6.93;2.80;;;;;;;19.40;42.90;100945.59;126163;1099;104284;-75
2021/09/03 11:09:20;;;;;;;4.80;2.80;;;;;;;19.29;43.13;100942.86;126317;1099;104172;-76
2021/09/03 11:11:49;;;;;;;8.33;2.83;;;;;;;19.25;43.35;100932.18;126346;1099;104140;-77
2021/09/03 11:14:20;;;;;;;13.07;3.23;;;;;;;19.40;43.20;100933.16;126300;1099;104223;-76
2021/09/03 11:16:54;;;;;;;7.00;2.75;;;;;;;19.51;42.39;100927.00;126020;1099;104150;-75
2021/09/03 11:19:27;;;;;;;7.07;3.03;;;;;;;19.58;42.63;100924.38;126102;1099;104226;-76
2021/09/03 11:22:01;;;;;;;9.67;3.27;;;;;;;19.74;43.11;100914.72;126261;1099;104307;-76